sensor_id;sensor_type;location;lat;lon;timestamp;pressure;altitude;pressure_sealevel;temperature;humidity
31096;BME280;17749;51.962;8.560;2023-12-14T06:02:02;99747.28;;;3.56;100.00
31096;BME280;17749;51.962;8.560;2023-12-14T06:04:29;99746.53;;;3.49;100.00
31096;BME280;17749;51.962;8.560;2023-12-14T06:06:56;99754.44;;;3.49;100.00
31096;BME280;17749;51.962;8.560;2023-12-14T06:09:23;99757.94;;;3.50;100.00
31096;BME280;17749;51.962;8.560;2023-12-14T06:11:56;99758.06;;;3.42;100.00
31096;BME280;17749;51.962;8.560;2023-12-14T06:14:23;99763.31;;;3.42;100.00
31096;BME280;17749;51.962;8.560;2023-12-14T06:16:50;99767.66;;;3.46;100.00
31096;BME280;17749;51.962;8.560;2023-12-14T06:19:17;99765.91;;;3.45;100.00
31096;BME280;17749;51.962;8.560;2023-12-14T06:21:44;99764.97;;;3.48;100.00
31096;BME280;17749;51.962;8.560;2023-12-14T06:24:11;99770.19;;;3.51;100.00
31096;BME280;17749;51.962;8.560;2023-12-14T06:26:42;99767.66;;;3.46;100.00
31096;BME280;17749;51.962;8.560;2023-12-14T06:29:11;99767.66;;;3.46;100.00
31096;BME280;17749;51.962;8.560;2023-12-14T06:31:38;99785.97;;;3.51;100.00
31096;BME280;17749;51.962;8.560;2023-12-14T06:34:06;99787.75;;;3.50;100.00
31096;BME280;17749;51.962;8.560;2023-12-14T06:36:34;99778.13;;;3.49;100.00
31096;BME280;17749;51.962;8.560;2023-12-14T06:39:01;99788.66;;;3.48;100.00
31096;BME280;17749;51.962;8.560;2023-12-14T06:41:30;99795.69;;;3.49;100.00
31096;BME280;17749;51.962;8.560;2023-12-14T06:43:57;99804.56;;;3.43;100.00
31096;BME280;17749;51.962;8.560;2023-12-14T06:46:24;99807.19;;;3.43;100.00
31096;BME280;17749;51.962;8.560;2023-12-14T06:48:51;99823.91;;;3.41;100.00
31096;BME280;17749;51.962;8.560;2023-12-14T06:51:18;99825.75;;;3.34;100.00
31096;BME280;17749;51.962;8.560;2023-12-14T06:53:45;99825.75;;;3.34;100.00
31096;BME280;17749;51.962;8.560;2023-12-14T06:56:15;99819.56;;;3.35;100.00
31096;BME280;17749;51.962;8.560;2023-12-14T06:58:43;99824.81;;;3.38;100.00
31096;BME280;17749;51.962;8.560;2023-12-14T07:01:15;99837.06;;;3.39;100.00
31096;BME280;17749;51.962;8.560;2023-12-14T07:03:43;99840.63;;;3.38;100.00
31096;BME280;17749;51.962;8.560;2023-12-14T07:06:14;99851.97;;;3.40;100.00
31096;BME280;17749;51.962;8.560;2023-12-14T07:08:41;99851.09;;;3.41;100.00
31096;BME280;17749;51.962;8.560;2023-12-14T07:11:09;99860.66;;;3.45;100.00
31096;BME280;17749;51.962;8.560;2023-12-14T07:13:36;99858.03;;;3.45;100.00
31096;BME280;17749;51.962;8.560;2023-12-14T07:16:06;99876.44;;;3.48;100.00
31096;BME280;17749;51.962;8.560;2023-12-14T07:18:38;99875.59;;;3.46;100.00
31096;BME280;17749;51.962;8.560;2023-12-14T07:21:06;99883.50;;;3.45;100.00
31096;BME280;17749;51.962;8.560;2023-12-14T07:23:34;99891.34;;;3.49;100.00
31096;BME280;17749;51.962;8.560;2023-12-14T07:26:01;99901.81;;;3.51;100.00
31096;BME280;17749;51.962;8.560;2023-12-14T07:28:32;99907.88;;;3.59;100.00
31096;BME280;17749;51.962;8.560;2023-12-14T07:30:59;99919.31;;;3.57;100.00
31096;BME280;17749;51.962;8.560;2023-12-14T07:33:26;99926.41;;;3.51;100.00
31096;BME280;17749;51.962;8.560;2023-12-14T07:35:53;99926.47;;;3.48;100.00
31096;BME280;17749;51.962;8.560;2023-12-14T07:38:20;99928.25;;;3.46;100.00
31096;BME280;17749;51.962;8.560;2023-12-14T07:40:47;99928.31;;;3.40;100.00
31096;BME280;17749;51.962;8.560;2023-12-14T07:43:16;99937.06;;;3.42;100.00
31096;BME280;17749;51.962;8.560;2023-12-14T07:45:44;99940.53;;;3.46;100.00
31096;BME280;17749;51.962;8.560;2023-12-14T07:48:12;99944.09;;;3.43;100.00
31096;BME280;17749;51.962;8.560;2023-12-14T07:50:40;99953.69;;;3.46;100.00
31096;BME280;17749;51.962;8.560;2023-12-14T07:53:07;99957.25;;;3.43;100.00
31096;BME280;17749;51.962;8.560;2023-12-14T07:55:34;99963.28;;;3.51;100.00
31096;BME280;17749;51.962;8.560;2023-12-14T07:58:01;99967.63;;;3.53;100.00
31096;BME280;17749;51.962;8.560;2023-12-14T08:00:32;99972.94;;;3.48;100.00
31096;BME280;17749;51.962;8.560;2023-12-14T08:02:59;99973.91;;;3.42;100.00
31096;BME280;17749;51.962;8.560;2023-12-14T08:05:26;99976.47;;;3.48;100.00
31096;BME280;17749;51.962;8.560;2023-12-14T08:07:53;99982.63;;;3.49;100.00
31096;BME280;17749;51.962;8.560;2023-12-14T08:10:20;99979.03;;;3.53;100.00
31096;BME280;17749;51.962;8.560;2023-12-14T08:12:47;99986.06;;;3.54;100.00
31096;BME280;17749;51.962;8.560;2023-12-14T08:15:14;99998.31;;;3.54;100.00
31096;BME280;17749;51.962;8.560;2023-12-14T08:17:43;99996.59;;;3.54;100.00
31096;BME280;17749;51.962;8.560;2023-12-14T08:20:10;100001.91;;;3.49;100.00
31096;BME280;17749;51.962;8.560;2023-12-14T08:22:39;100014.31;;;3.40;100.00
31096;BME280;17749;51.962;8.560;2023-12-14T08:25:14;100005.53;;;3.41;100.00
31096;BME280;17749;51.962;8.560;2023-12-14T08:27:42;100022.22;;;3.40;100.00
31096;BME280;17749;51.962;8.560;2023-12-14T08:30:11;100032.69;;;3.46;100.00
31096;BME280;17749;51.962;8.560;2023-12-14T08:32:38;100025.69;;;3.43;100.00
31096;BME280;17749;51.962;8.560;2023-12-14T08:35:06;100044.03;;;3.48;100.00
31096;BME280;17749;51.962;8.560;2023-12-14T08:37:35;100037.91;;;3.47;100.00
31096;BME280;17749;51.962;8.560;2023-12-14T08:40:04;100044.13;;;3.40;100.00
31096;BME280;17749;51.962;8.560;2023-12-14T08:42:32;100045.94;;;3.38;100.00
31096;BME280;17749;51.962;8.560;2023-12-14T08:44:59;100051.13;;;3.43;100.00
31096;BME280;17749;51.962;8.560;2023-12-14T08:47:26;100058.09;;;3.45;100.00
31096;BME280;17749;51.962;8.560;2023-12-14T08:49:53;100062.56;;;3.40;100.00
31096;BME280;17749;51.962;8.560;2023-12-14T08:52:20;100061.78;;;3.32;100.00
31096;BME280;17749;51.962;8.560;2023-12-14T08:54:47;100060.13;;;3.25;100.00
31096;BME280;17749;51.962;8.560;2023-12-14T08:57:14;100061.91;;;3.23;100.00
31096;BME280;17749;51.962;8.560;2023-12-14T08:59:41;100063.63;;;3.24;100.00
31096;BME280;17749;51.962;8.560;2023-12-14T09:02:10;100073.25;;;3.28;100.00
31096;BME280;17749;51.962;8.560;2023-12-14T09:04:37;100074.94;;;3.32;100.00
31096;BME280;17749;51.962;8.560;2023-12-14T09:07:05;100074.06;;;3.30;100.00
31096;BME280;17749;51.962;8.560;2023-12-14T09:09:32;100079.34;;;3.30;100.00
31096;BME280;17749;51.962;8.560;2023-12-14T09:11:59;100088.09;;;3.34;100.00
31096;BME280;17749;51.962;8.560;2023-12-14T09:14:26;100089.88;;;3.33;100.00
31096;BME280;17749;51.962;8.560;2023-12-14T09:16:53;100093.31;;;3.38;100.00
31096;BME280;17749;51.962;8.560;2023-12-14T09:19:20;100096.78;;;3.43;100.00
31096;BME280;17749;51.962;8.560;2023-12-14T09:21:48;100104.69;;;3.40;100.00
31096;BME280;17749;51.962;8.560;2023-12-14T09:24:15;100114.38;;;3.38;100.00
31096;BME280;17749;51.962;8.560;2023-12-14T09:26:42;100110.88;;;3.36;100.00
31096;BME280;17749;51.962;8.560;2023-12-14T09:29:10;100118.81;;;3.32;100.00
31096;BME280;17749;51.962;8.560;2023-12-14T09:31:41;100130.13;;;3.40;100.00
31096;BME280;17749;51.962;8.560;2023-12-14T09:34:12;100131.00;;;3.43;100.00
31096;BME280;17749;51.962;8.560;2023-12-14T09:36:39;100125.63;;;3.53;100.00
31096;BME280;17749;51.962;8.560;2023-12-14T09:39:07;100129.97;;;3.54;100.00
31096;BME280;17749;51.962;8.560;2023-12-14T09:41:38;100140.47;;;3.60;100.00
31096;BME280;17749;51.962;8.560;2023-12-14T09:44:06;100130.78;;;3.60;100.00
31096;BME280;17749;51.962;8.560;2023-12-14T09:46:36;100132.56;;;3.58;100.00
31096;BME280;17749;51.962;8.560;2023-12-14T09:49:05;100131.78;;;3.51;100.00
31096;BME280;17749;51.962;8.560;2023-12-14T09:51:35;100138.78;;;3.54;100.00
31096;BME280;17749;51.962;8.560;2023-12-14T09:54:03;100140.56;;;3.50;100.00
31096;BME280;17749;51.962;8.560;2023-12-14T09:56:30;100156.34;;;3.50;100.00
31096;BME280;17749;51.962;8.560;2023-12-14T09:58:57;100151.13;;;3.47;100.00
31096;BME280;17749;51.962;8.560;2023-12-14T10:01:27;100166.91;;;3.47;100.00
31096;BME280;17749;51.962;8.560;2023-12-14T10:04:10;100182.63;;;3.57;100.00
31096;BME280;17749;51.962;8.560;2023-12-14T10:06:39;100189.56;;;3.64;100.00
31096;BME280;17749;51.962;8.560;2023-12-14T10:09:06;100187.91;;;3.57;100.00
31096;BME280;17749;51.962;8.560;2023-12-14T10:11:41;100188.81;;;3.54;100.00
31096;BME280;17749;51.962;8.560;2023-12-14T10:14:22;100191.38;;;3.60;100.00
31096;BME280;17749;51.962;8.560;2023-12-14T10:16:50;100194.88;;;3.61;100.00
31096;BME280;17749;51.962;8.560;2023-12-14T10:19:19;100195.72;;;3.61;100.00
31096;BME280;17749;51.962;8.560;2023-12-14T10:21:47;100197.47;;;3.65;100.00
31096;BME280;17749;51.962;8.560;2023-12-14T10:24:16;100207.06;;;3.71;100.00
31096;BME280;17749;51.962;8.560;2023-12-14T10:26:47;100213.19;;;3.73;100.00
31096;BME280;17749;51.962;8.560;2023-12-14T10:29:15;100219.34;;;3.70;100.00
31096;BME280;17749;51.962;8.560;2023-12-14T10:31:43;100216.69;;;3.72;100.00
31096;BME280;17749;51.962;8.560;2023-12-14T10:34:11;100219.31;;;3.73;100.00
31096;BME280;17749;51.962;8.560;2023-12-14T10:36:40;100212.25;;;3.77;100.00
31096;BME280;17749;51.962;8.560;2023-12-14T10:39:13;100215.84;;;3.70;100.00
31096;BME280;17749;51.962;8.560;2023-12-14T10:41:45;100217.59;;;3.71;100.00
31096;BME280;17749;51.962;8.560;2023-12-14T10:44:21;100221.94;;;3.75;100.00
31096;BME280;17749;51.962;8.560;2023-12-14T10:47:13;100221.94;;;3.73;100.00
31096;BME280;17749;51.962;8.560;2023-12-14T10:49:43;100229.81;;;3.78;100.00
31096;BME280;17749;51.962;8.560;2023-12-14T10:52:16;100226.28;;;3.79;100.00
31096;BME280;17749;51.962;8.560;2023-12-14T10:54:45;100235.09;;;3.78;100.00
31096;BME280;17749;51.962;8.560;2023-12-14T10:57:13;100228.06;;;3.77;100.00
31096;BME280;17749;51.962;8.560;2023-12-14T10:59:42;100230.66;;;3.82;100.00
31096;BME280;17749;51.962;8.560;2023-12-14T11:02:09;100232.41;;;3.81;100.00
31096;BME280;17749;51.962;8.560;2023-12-14T11:05:00;100239.28;;;3.96;100.00
31096;BME280;17749;51.962;8.560;2023-12-14T11:07:53;100238.31;;;4.05;100.00
31096;BME280;17749;51.962;8.560;2023-12-14T11:10:26;100245.34;;;4.03;100.00
31096;BME280;17749;51.962;8.560;2023-12-14T11:12:57;100245.38;;;4.01;100.00
31096;BME280;17749;51.962;8.560;2023-12-14T11:15:28;100243.63;;;4.02;100.00
31096;BME280;17749;51.962;8.560;2023-12-14T11:20:56;100256.84;;;3.97;100.00
31096;BME280;17749;51.962;8.560;2023-12-14T11:28:27;100277.91;;;3.97;100.00
31096;BME280;17749;51.962;8.560;2023-12-14T11:30:56;100278.75;;;4.01;100.00
31096;BME280;17749;51.962;8.560;2023-12-14T11:33:24;100282.19;;;4.06;100.00
31096;BME280;17749;51.962;8.560;2023-12-14T11:35:51;100283.97;;;4.07;100.00
31096;BME280;17749;51.962;8.560;2023-12-14T11:38:22;100285.72;;;4.08;100.00
31096;BME280;17749;51.962;8.560;2023-12-14T11:40:50;100285.72;;;4.08;100.00
31096;BME280;17749;51.962;8.560;2023-12-14T11:43:18;100282.13;;;4.15;100.00
31096;BME280;17749;51.962;8.560;2023-12-14T11:45:48;100286.44;;;4.22;100.00
31096;BME280;17749;51.962;8.560;2023-12-14T11:48:16;100286.38;;;4.28;100.00
31096;BME280;17749;51.962;8.560;2023-12-14T11:50:44;100287.25;;;4.27;100.00
31096;BME280;17749;51.962;8.560;2023-12-14T11:53:11;100297.91;;;4.20;100.00
31096;BME280;17749;51.962;8.560;2023-12-14T11:55:40;100292.53;;;4.27;100.00
31096;BME280;17749;51.962;8.560;2023-12-14T11:58:09;100290.72;;;4.29;100.00
31096;BME280;17749;51.962;8.560;2023-12-14T12:00:38;100294.22;;;4.31;100.00
31096;BME280;17749;51.962;8.560;2023-12-14T12:03:17;100307.44;;;4.30;100.00
31096;BME280;17749;51.962;8.560;2023-12-14T12:05:50;100307.53;;;4.21;100.00
31096;BME280;17749;51.962;8.560;2023-12-14T12:08:20;100311.91;;;4.23;100.00
31096;BME280;17749;51.962;8.560;2023-12-14T12:10:48;100314.50;;;4.28;100.00
31096;BME280;17749;51.962;8.560;2023-12-14T12:13:17;100310.00;;;4.36;100.00
31096;BME280;17749;51.962;8.560;2023-12-14T12:15:45;100313.56;;;4.33;100.00
31096;BME280;17749;51.962;8.560;2023-12-14T12:18:15;100317.00;;;4.38;100.00
31096;BME280;17749;51.962;8.560;2023-12-14T12:20:43;100320.47;;;4.42;100.00
31096;BME280;17749;51.962;8.560;2023-12-14T12:23:11;100313.47;;;4.39;100.00
31096;BME280;17749;51.962;8.560;2023-12-14T12:25:38;100322.28;;;4.38;100.00
31096;BME280;17749;51.962;8.560;2023-12-14T12:28:05;100317.84;;;4.42;100.00
31096;BME280;17749;51.962;8.560;2023-12-14T12:30:32;100320.38;;;4.50;100.00
31096;BME280;17749;51.962;8.560;2023-12-14T12:33:02;100329.13;;;4.55;100.00
31096;BME280;17749;51.962;8.560;2023-12-14T12:35:29;100323.81;;;4.58;100.00
31096;BME280;17749;51.962;8.560;2023-12-14T12:37:57;100329.03;;;4.61;100.00
31096;BME280;17749;51.962;8.560;2023-12-14T12:40:25;100324.69;;;4.57;100.00
31096;BME280;17749;51.962;8.560;2023-12-14T12:42:56;100327.34;;;4.57;100.00
31096;BME280;17749;51.962;8.560;2023-12-14T12:45:24;100325.66;;;4.50;100.00
31096;BME280;17749;51.962;8.560;2023-12-14T12:47:55;100332.63;;;4.57;100.00
31096;BME280;17749;51.962;8.560;2023-12-14T12:50:23;100332.66;;;4.54;100.00
31096;BME280;17749;51.962;8.560;2023-12-14T12:52:51;100332.66;;;4.54;100.00
31096;BME280;17749;51.962;8.560;2023-12-14T12:55:18;100323.88;;;4.52;100.00
31096;BME280;17749;51.962;8.560;2023-12-14T12:57:57;100321.19;;;4.56;100.00
31096;BME280;17749;51.962;8.560;2023-12-14T13:00:25;100320.19;;;4.65;100.00
31096;BME280;17749;51.962;8.560;2023-12-14T13:02:52;100321.94;;;4.68;100.00
31096;BME280;17749;51.962;8.560;2023-12-14T13:05:19;100328.03;;;4.71;100.00
31096;BME280;17749;51.962;8.560;2023-12-14T13:07:47;100325.47;;;4.65;100.00
31096;BME280;17749;51.962;8.560;2023-12-14T13:10:15;100334.25;;;4.67;100.00
31096;BME280;17749;51.962;8.560;2023-12-14T13:12:57;100332.47;;;4.69;100.00
31096;BME280;17749;51.962;8.560;2023-12-14T13:15:24;100335.13;;;4.69;100.00
31096;BME280;17749;51.962;8.560;2023-12-14T13:17:53;100343.94;;;4.67;100.00
31096;BME280;17749;51.962;8.560;2023-12-14T13:20:21;100336.91;;;4.66;100.00
31096;BME280;17749;51.962;8.560;2023-12-14T13:22:48;100343.03;;;4.66;100.00
31096;BME280;17749;51.962;8.560;2023-12-14T13:25:16;100354.41;;;4.71;100.00
31096;BME280;17749;51.962;8.560;2023-12-14T13:27:43;100348.31;;;4.69;100.00
31096;BME280;17749;51.962;8.560;2023-12-14T13:30:11;100358.81;;;4.72;100.00
31096;BME280;17749;51.962;8.560;2023-12-14T13:32:41;100366.69;;;4.74;100.00
31096;BME280;17749;51.962;8.560;2023-12-14T13:35:08;100364.06;;;4.74;100.00
31096;BME280;17749;51.962;8.560;2023-12-14T13:37:36;100364.91;;;4.76;100.00
31096;BME280;17749;51.962;8.560;2023-12-14T13:40:04;100373.66;;;4.81;100.00
31096;BME280;17749;51.962;8.560;2023-12-14T13:42:31;100379.88;;;4.75;100.00
31096;BME280;17749;51.962;8.560;2023-12-14T13:44:59;100382.53;;;4.75;100.00
31096;BME280;17749;51.962;8.560;2023-12-14T13:47:27;100390.47;;;4.72;100.00
31096;BME280;17749;51.962;8.560;2023-12-14T13:49:54;100410.75;;;4.67;100.00
31096;BME280;17749;51.962;8.560;2023-12-14T13:52:21;100408.16;;;4.64;100.00
31096;BME280;17749;51.962;8.560;2023-12-14T13:54:48;100409.94;;;4.62;100.00
31096;BME280;17749;51.962;8.560;2023-12-14T13:57:15;100412.56;;;4.60;100.00
31096;BME280;17749;51.962;8.560;2023-12-14T13:59:42;100420.44;;;4.64;100.00
31096;BME280;17749;51.962;8.560;2023-12-14T14:02:09;100431.03;;;4.62;100.00
31096;BME280;17749;51.962;8.560;2023-12-14T14:04:38;100434.56;;;4.59;100.00
31096;BME280;17749;51.962;8.560;2023-12-14T14:07:05;100437.25;;;4.56;100.00
31096;BME280;17749;51.962;8.560;2023-12-14T14:09:32;100439.84;;;4.59;100.00
31096;BME280;17749;51.962;8.560;2023-12-14T14:11:59;100441.59;;;4.62;100.00
31096;BME280;17749;51.962;8.560;2023-12-14T14:14:27;100447.72;;;4.64;100.00
31096;BME280;17749;51.962;8.560;2023-12-14T14:16:54;100457.38;;;4.65;100.00
31096;BME280;17749;51.962;8.560;2023-12-14T14:19:21;100458.28;;;4.63;100.00
31096;BME280;17749;51.962;8.560;2023-12-14T14:21:48;100458.31;;;4.58;100.00
31096;BME280;17749;51.962;8.560;2023-12-14T14:24:15;100463.63;;;4.56;100.00
31096;BME280;17749;51.962;8.560;2023-12-14T14:26:45;100479.47;;;4.55;100.00
31096;BME280;17749;51.962;8.560;2023-12-14T14:29:13;100493.53;;;4.54;100.00
31096;BME280;17749;51.962;8.560;2023-12-14T14:31:40;100495.31;;;4.53;100.00
31096;BME280;17749;51.962;8.560;2023-12-14T14:34:07;100494.47;;;4.47;100.00
31096;BME280;17749;51.962;8.560;2023-12-14T14:36:34;100503.25;;;4.47;100.00
31096;BME280;17749;51.962;8.560;2023-12-14T14:39:29;100513.00;;;4.41;100.00
31096;BME280;17749;51.962;8.560;2023-12-14T14:41:56;100514.78;;;4.38;100.00
31096;BME280;17749;51.962;8.560;2023-12-14T14:44:24;100516.53;;;4.36;100.00
31096;BME280;17749;51.962;8.560;2023-12-14T14:46:52;100516.56;;;4.33;100.00
31096;BME280;17749;51.962;8.560;2023-12-14T14:49:19;100517.41;;;4.38;100.00
31096;BME280;17749;51.962;8.560;2023-12-14T14:51:47;100518.28;;;4.37;100.00
31096;BME280;17749;51.962;8.560;2023-12-14T14:54:14;100524.47;;;4.36;100.00
31096;BME280;17749;51.962;8.560;2023-12-14T14:56:41;100520.97;;;4.31;100.00
31096;BME280;17749;51.962;8.560;2023-12-14T14:59:09;100535.06;;;4.30;100.00
31096;BME280;17749;51.962;8.560;2023-12-14T15:01:38;100544.75;;;4.24;100.00
31096;BME280;17749;51.962;8.560;2023-12-14T15:04:05;100553.59;;;4.20;100.00
31096;BME280;17749;51.962;8.560;2023-12-14T15:06:32;100554.47;;;4.20;100.00
31096;BME280;17749;51.962;8.560;2023-12-14T15:09:00;100552.69;;;4.19;100.00
31096;BME280;17749;51.962;8.560;2023-12-14T15:11:27;100557.97;;;4.22;100.00
31096;BME280;17749;51.962;8.560;2023-12-14T15:13:54;100568.53;;;4.22;100.00
31096;BME280;17749;51.962;8.560;2023-12-14T15:16:22;100568.53;;;4.16;100.00
31096;BME280;17749;51.962;8.560;2023-12-14T15:18:52;100569.41;;;4.16;100.00
31096;BME280;17749;51.962;8.560;2023-12-14T15:21:20;100565.94;;;4.13;100.00
31096;BME280;17749;51.962;8.560;2023-12-14T15:23:47;100577.34;;;4.13;100.00
31096;BME280;17749;51.962;8.560;2023-12-14T15:26:16;100579.13;;;4.10;100.00
31096;BME280;17749;51.962;8.560;2023-12-14T15:28:43;100580.91;;;4.05;100.00
31096;BME280;17749;51.962;8.560;2023-12-14T15:31:10;100586.22;;;4.02;100.00
31096;BME280;17749;51.962;8.560;2023-12-14T15:33:38;100586.22;;;4.02;100.00
31096;BME280;17749;51.962;8.560;2023-12-14T15:36:05;100591.44;;;4.03;100.00
31096;BME280;17749;51.962;8.560;2023-12-14T15:38:32;100604.63;;;4.06;100.00
31096;BME280;17749;51.962;8.560;2023-12-14T15:40:59;100593.22;;;4.03;100.00
31096;BME280;17749;51.962;8.560;2023-12-14T15:43:27;100601.13;;;4.04;100.00
31096;BME280;17749;51.962;8.560;2023-12-14T15:45:54;100596.75;;;4.02;100.00
31096;BME280;17749;51.962;8.560;2023-12-14T15:48:21;100604.66;;;4.02;100.00
31096;BME280;17749;51.962;8.560;2023-12-14T15:50:48;100613.44;;;4.02;100.00
31096;BME280;17749;51.962;8.560;2023-12-14T15:53:15;100618.72;;;4.04;100.00
31096;BME280;17749;51.962;8.560;2023-12-14T15:55:45;100611.69;;;4.00;100.00
31096;BME280;17749;51.962;8.560;2023-12-14T15:58:13;100619.56;;;4.03;100.00
31096;BME280;17749;51.962;8.560;2023-12-14T16:00:40;100619.59;;;4.00;100.00
31096;BME280;17749;51.962;8.560;2023-12-14T16:03:07;100625.75;;;3.97;100.00
31096;BME280;17749;51.962;8.560;2023-12-14T16:05:37;100625.75;;;3.99;100.00
31096;BME280;17749;51.962;8.560;2023-12-14T16:08:05;100624.00;;;3.98;100.00
31096;BME280;17749;51.962;8.560;2023-12-14T16:10:33;100633.66;;;3.95;100.00
31096;BME280;17749;51.962;8.560;2023-12-14T16:13:00;100638.09;;;3.93;100.00
31096;BME280;17749;51.962;8.560;2023-12-14T16:15:27;100642.47;;;3.94;100.00
31096;BME280;17749;51.962;8.560;2023-12-14T16:17:54;100632.78;;;3.95;100.00
31096;BME280;17749;51.962;8.560;2023-12-14T16:20:22;100639.81;;;3.98;100.00
31096;BME280;17749;51.962;8.560;2023-12-14T16:22:51;100647.72;;;3.98;100.00
31096;BME280;17749;51.962;8.560;2023-12-14T16:25:19;100659.16;;;3.97;100.00
31096;BME280;17749;51.962;8.560;2023-12-14T16:27:47;100655.63;;;3.98;100.00
31096;BME280;17749;51.962;8.560;2023-12-14T16:30:15;100656.50;;;4.00;100.00
31096;BME280;17749;51.962;8.560;2023-12-14T16:32:50;100663.50;;;4.01;100.00
31096;BME280;17749;51.962;8.560;2023-12-14T16:35:17;100667.03;;;4.00;100.00
31096;BME280;17749;51.962;8.560;2023-12-14T16:41:21;100673.19;;;3.99;100.00
31096;BME280;17749;51.962;8.560;2023-12-14T16:43:48;100679.34;;;3.98;100.00
31096;BME280;17749;51.962;8.560;2023-12-14T16:46:17;100688.13;;;4.00;100.00
31096;BME280;17749;51.962;8.560;2023-12-14T16:48:45;100695.16;;;3.98;100.00
31096;BME280;17749;51.962;8.560;2023-12-14T16:51:13;100703.06;;;3.96;100.00
31096;BME280;17749;51.962;8.560;2023-12-14T16:53:40;100702.16;;;3.95;100.00
31096;BME280;17749;51.962;8.560;2023-12-14T16:56:09;100703.06;;;3.96;100.00
31096;BME280;17749;51.962;8.560;2023-12-14T16:58:36;100710.97;;;3.98;100.00
31096;BME280;17749;51.962;8.560;2023-12-14T17:01:05;100712.72;;;4.02;100.00
31096;BME280;17749;51.962;8.560;2023-12-14T17:03:32;100718.84;;;4.01;100.00
31096;BME280;17749;51.962;8.560;2023-12-14T17:06:00;100717.97;;;4.05;100.00
31096;BME280;17749;51.962;8.560;2023-12-14T17:08:27;100730.28;;;4.03;100.00
31096;BME280;17749;51.962;8.560;2023-12-14T17:10:55;100726.78;;;3.96;100.00
31096;BME280;17749;51.962;8.560;2023-12-14T17:13:22;100733.81;;;4.02;100.00
31096;BME280;17749;51.962;8.560;2023-12-14T17:15:50;100738.19;;;4.01;100.00
31096;BME280;17749;51.962;8.560;2023-12-14T17:18:17;100733.81;;;3.99;100.00
31096;BME280;17749;51.962;8.560;2023-12-14T17:20:44;100734.66;;;4.01;100.00
31096;BME280;17749;51.962;8.560;2023-12-14T17:23:11;100739.94;;;4.04;100.00
31096;BME280;17749;51.962;8.560;2023-12-14T17:25:39;100740.81;;;4.00;100.00
31096;BME280;17749;51.962;8.560;2023-12-14T17:28:05;100741.69;;;4.00;100.00
31096;BME280;17749;51.962;8.560;2023-12-14T17:30:33;100745.22;;;4.04;100.00
31096;BME280;17749;51.962;8.560;2023-12-14T17:33:01;100742.56;;;4.02;100.00
31096;BME280;17749;51.962;8.560;2023-12-14T17:35:32;100750.47;;;4.05;100.00
31096;BME280;17749;51.962;8.560;2023-12-14T17:37:59;100751.34;;;4.03;100.00
31096;BME280;17749;51.962;8.560;2023-12-14T17:40:26;100761.00;;;4.01;100.00
31096;BME280;17749;51.962;8.560;2023-12-14T17:42:54;100760.16;;;3.99;100.00
31096;BME280;17749;51.962;8.560;2023-12-14T17:45:22;100772.44;;;4.03;100.00
31096;BME280;17749;51.962;8.560;2023-12-14T17:47:49;100766.31;;;3.99;100.00
31096;BME280;17749;51.962;8.560;2023-12-14T17:50:16;100781.22;;;4.03;100.00
31096;BME280;17749;51.962;8.560;2023-12-14T17:52:43;100782.13;;;3.99;100.00
31096;BME280;17749;51.962;8.560;2023-12-14T17:55:10;100786.53;;;3.99;100.00
31096;BME280;17749;51.962;8.560;2023-12-14T17:57:38;100787.38;;;3.98;100.00
31096;BME280;17749;51.962;8.560;2023-12-14T18:00:05;100796.19;;;4.00;100.00
31096;BME280;17749;51.962;8.560;2023-12-14T18:02:34;100787.41;;;3.99;100.00
31096;BME280;17749;51.962;8.560;2023-12-14T18:05:01;100793.53;;;4.03;100.00
31096;BME280;17749;51.962;8.560;2023-12-14T18:07:28;100788.25;;;4.06;100.00
31096;BME280;17749;51.962;8.560;2023-12-14T18:09:55;100794.41;;;4.03;100.00
31096;BME280;17749;51.962;8.560;2023-12-14T18:12:21;100800.56;;;4.04;100.00
31096;BME280;17749;51.962;8.560;2023-12-14T18:14:48;100805.84;;;4.04;100.00
31096;BME280;17749;51.962;8.560;2023-12-14T18:17:15;100807.59;;;4.05;100.00
31096;BME280;17749;51.962;8.560;2023-12-14T18:19:42;100819.88;;;4.06;100.00
31096;BME280;17749;51.962;8.560;2023-12-14T18:22:09;100817.22;;;4.10;100.00
31096;BME280;17749;51.962;8.560;2023-12-14T18:24:36;100823.38;;;4.08;100.00
31096;BME280;17749;51.962;8.560;2023-12-14T18:27:03;100827.78;;;4.07;100.00
31096;BME280;17749;51.962;8.560;2023-12-14T18:29:30;100826.91;;;4.08;100.00
31096;BME280;17749;51.962;8.560;2023-12-14T18:31:57;100831.28;;;4.12;100.00
31096;BME280;17749;51.962;8.560;2023-12-14T18:34:24;100826.91;;;4.10;100.00
31096;BME280;17749;51.962;8.560;2023-12-14T18:36:51;100829.53;;;4.08;100.00
31096;BME280;17749;51.962;8.560;2023-12-14T18:39:18;100835.69;;;4.06;100.00
31096;BME280;17749;51.962;8.560;2023-12-14T18:41:45;100853.28;;;4.07;100.00
31096;BME280;17749;51.962;8.560;2023-12-14T18:44:12;100846.25;;;4.04;100.00
31096;BME280;17749;51.962;8.560;2023-12-14T18:46:39;100854.16;;;4.07;100.00
31096;BME280;17749;51.962;8.560;2023-12-14T18:49:06;100864.69;;;4.04;100.00
31096;BME280;17749;51.962;8.560;2023-12-14T18:51:38;100862.94;;;4.03;100.00
31096;BME280;17749;51.962;8.560;2023-12-14T18:54:05;100868.22;;;4.00;100.00
31096;BME280;17749;51.962;8.560;2023-12-14T18:56:32;100869.97;;;3.98;100.00
31096;BME280;17749;51.962;8.560;2023-12-14T18:58:59;100876.13;;;3.99;100.00
31096;BME280;17749;51.962;8.560;2023-12-14T19:01:26;100875.25;;;3.97;100.00
31096;BME280;17749;51.962;8.560;2023-12-14T19:03:53;100877.00;;;3.96;100.00
31096;BME280;17749;51.962;8.560;2023-12-14T19:06:20;100874.34;;;3.98;100.00
31096;BME280;17749;51.962;8.560;2023-12-14T19:08:47;100879.66;;;4.04;100.00
31096;BME280;17749;51.962;8.560;2023-12-14T19:11:19;100880.50;;;4.04;100.00